Time,TemperatureF,DewpointF,PressureIn,WindDirection,WindDirectionDegrees,WindSpeedMPH,WindSpeedGustMPH,Humidity,HourlyPrecipIn,Conditions,Clouds,dailyrainin,SolarRadiationWatts/m^2,SoftwareType,DateUTC
2013-04-06 00:00:00,35.8,24.8,29.65,SSW,195,4.0,4.0,64,0.00,,,0.02,0,Wunderground v.1.15,2013-04-06 06:00:00,
2013-04-06 00:05:00,35.6,22.7,29.65,East,79,4.0,33.0,59,0.00,,,0.02,0,Wunderground v.1.15,2013-04-06 06:05:00,
2013-04-06 00:15:00,35.8,23.7,29.65,SE,124,4.0,6.0,61,0.00,,,0.02,0,Wunderground v.1.15,2013-04-06 06:15:00,
2013-04-06 00:25:00,35.6,23.1,29.65,NW,313,7.0,15.0,60,0.00,,,0.02,0,Wunderground v.1.15,2013-04-06 06:25:00,
2013-04-06 00:35:00,35.8,22.9,29.65,SSW,199,6.0,15.0,59,0.00,,,0.02,0,Wunderground v.1.15,2013-04-06 06:35:00,
2013-04-06 00:40:00,35.8,23.3,29.66,North,8,2.0,16.0,60,0.00,,,0.02,0,Wunderground v.1.15,2013-04-06 06:40:00,
2013-04-06 00:50:00,35.8,22.0,29.66,WNW,301,5.0,5.0,57,0.00,,,0.02,0,Wunderground v.1.15,2013-04-06 06:50:00,
2013-04-06 00:55:00,35.8,22.0,29.66,NW,326,4.0,16.0,57,0.00,,,0.02,0,Wunderground v.1.15,2013-04-06 06:55:00,
2013-04-06 01:15:00,35.9,21.7,29.66,WNW,298,5.0,5.0,56,0.00,,,0.00,0,Wunderground v.1.15,2013-04-06 07:15:00,
2013-04-06 01:25:00,35.9,22.5,29.66,West,263,3.0,23.0,58,0.00,,,0.00,0,Wunderground v.1.15,2013-04-06 07:25:00,
2013-04-06 01:35:00,35.8,22.5,29.66,West,277,3.0,23.0,58,0.00,,,0.00,0,Wunderground v.1.15,2013-04-06 07:35:00,
2013-04-06 01:40:00,35.6,21.4,29.67,SW,230,4.0,24.0,56,0.00,,,0.00,0,Wunderground v.1.15,2013-04-06 07:40:00,
2013-04-06 01:50:00,35.5,22.2,29.67,SW,230,3.0,24.0,58,0.00,,,0.00,0,Wunderground v.1.15,2013-04-06 07:50:00,
2013-04-06 01:55:00,35.5,22.2,29.68,WSW,253,2.0,24.0,58,0.00,,,0.00,0,Wunderground v.1.15,2013-04-06 07:55:00,
2013-04-06 02:05:00,35.2,21.1,29.68,WSW,237,5.0,24.0,56,0.00,,,0.00,0,Wunderground v.1.15,2013-04-06 08:05:00,
2013-04-06 02:15:00,34.9,22.0,29.68,SW,229,2.0,17.0,59,0.00,,,0.00,0,Wunderground v.1.15,2013-04-06 08:15:00,
2013-04-06 02:25:00,34.6,20.9,29.66,SW,227,3.0,6.0,57,0.00,,,0.00,0,Wunderground v.1.15,2013-04-06 08:25:00,
2013-04-06 02:35:00,34.3,22.2,29.66,WSW,247,3.0,17.0,61,0.00,,,0.00,0,Wunderground v.1.15,2013-04-06 08:35:00,
2013-04-06 02:40:00,34.1,21.7,29.68,SW,233,5.0,5.0,60,0.00,,,0.00,0,Wunderground v.1.15,2013-04-06 08:40:00,
2013-04-06 02:50:00,34.0,21.6,29.68,SW,215,7.0,7.0,60,0.00,,,0.00,0,Wunderground v.1.15,2013-04-06 08:50:00,
2013-04-06 03:00:00,34.0,21.6,29.68,SSW,195,6.0,6.0,60,0.00,,,0.00,0,Wunderground v.1.15,2013-04-06 09:00:00,
2013-04-06 03:05:00,34.0,22.3,29.68,SSE,157,4.0,20.0,62,0.00,,,0.00,0,Wunderground v.1.15,2013-04-06 09:05:00,
2013-04-06 03:15:00,33.8,21.0,29.68,WSW,248,6.0,6.0,59,0.00,,,0.00,0,Wunderground v.1.15,2013-04-06 09:15:00,
2013-04-06 03:25:00,33.8,20.2,29.69,SW,222,9.0,20.0,57,0.00,,,0.00,0,Wunderground v.1.15,2013-04-06 09:25:00,
2013-04-06 03:35:00,33.8,19.7,29.69,SSW,195,5.0,10.0,56,0.00,,,0.00,0,Wunderground v.1.15,2013-04-06 09:35:00,
2013-04-06 03:40:00,33.8,20.2,29.68,SW,227,7.0,7.0,57,0.00,,,0.00,0,Wunderground v.1.15,2013-04-06 09:40:00,
2013-04-06 03:50:00,33.8,19.7,29.68,SSW,199,7.0,22.0,56,0.00,,,0.00,0,Wunderground v.1.15,2013-04-06 09:50:00,
2013-04-06 04:00:00,33.7,19.7,29.67,WSW,248,6.0,22.0,56,0.00,,,0.00,0,Wunderground v.1.15,2013-04-06 10:00:00,
2013-04-06 04:05:00,33.5,18.6,29.67,SSE,167,5.0,22.0,54,0.00,,,0.00,0,Wunderground v.1.15,2013-04-06 10:05:00,
2013-04-06 04:15:00,33.5,18.2,29.66,South,188,8.0,24.0,53,0.00,,,0.00,0,Wunderground v.1.15,2013-04-06 10:15:00,
2013-04-06 04:20:00,33.5,18.6,29.66,SSW,196,10.0,10.0,54,0.00,,,0.00,0,Wunderground v.1.15,2013-04-06 10:20:00,
2013-04-06 04:30:00,33.5,19.9,29.70,NE,55,8.0,8.0,57,0.00,,,0.00,0,Wunderground v.1.15,2013-04-06 10:30:00,
2013-04-06 04:40:00,33.4,19.8,29.72,West,275,6.0,25.0,57,0.00,,,0.00,0,Wunderground v.1.15,2013-04-06 10:40:00,
2013-04-06 04:50:00,33.1,19.9,29.72,NNE,32,9.0,9.0,58,0.00,,,0.00,0,Wunderground v.1.15,2013-04-06 10:50:00,
2013-04-06 05:00:00,33.1,19.9,29.71,South,175,4.0,25.0,58,0.00,,,0.00,0,Wunderground v.1.15,2013-04-06 11:00:00,
2013-04-06 05:05:00,32.9,20.1,29.71,East,95,4.0,25.0,59,0.00,,,0.00,0,Wunderground v.1.15,2013-04-06 11:05:00,
2013-04-06 05:15:00,32.8,20.0,29.71,SSE,162,6.0,23.0,59,0.00,,,0.00,0,Wunderground v.1.15,2013-04-06 11:15:00,
2013-04-06 05:25:00,32.8,20.0,29.72,SSE,148,5.0,23.0,59,0.00,,,0.00,0,Wunderground v.1.15,2013-04-06 11:25:00,
2013-04-06 05:35:00,32.7,19.9,29.72,SE,137,5.0,23.0,59,0.00,,,0.00,0,Wunderground v.1.15,2013-04-06 11:35:00,
2013-04-06 05:40:00,32.7,19.1,29.72,ESE,109,5.0,5.0,57,0.00,,,0.00,0,Wunderground v.1.15,2013-04-06 11:40:00,
2013-04-06 05:50:00,32.7,19.9,29.72,South,184,3.0,23.0,59,0.00,,,0.00,0,Wunderground v.1.15,2013-04-06 11:50:00,
2013-04-06 05:55:00,32.5,19.3,29.72,SE,131,6.0,23.0,58,0.00,,,0.00,0,Wunderground v.1.15,2013-04-06 11:55:00,
2013-04-06 06:05:00,32.5,19.3,29.72,SSE,157,6.0,23.0,58,0.00,,,0.00,0,Wunderground v.1.15,2013-04-06 12:05:00,
2013-04-06 06:15:00,32.5,18.9,29.72,SSW,205,5.0,20.0,57,0.00,,,0.00,0,Wunderground v.1.15,2013-04-06 12:15:00,
2013-04-06 06:20:00,32.5,18.9,29.72,South,179,5.0,20.0,57,0.00,,,0.00,0,Wunderground v.1.15,2013-04-06 12:20:00,
2013-04-06 06:30:00,32.4,18.0,29.76,WSW,246,8.0,8.0,55,0.00,,,0.00,0,Wunderground v.1.15,2013-04-06 12:30:00,
2013-04-06 06:35:00,32.4,18.4,29.76,SSE,147,7.0,20.0,56,0.00,,,0.00,0,Wunderground v.1.15,2013-04-06 12:35:00,
2013-04-06 06:40:00,32.5,18.1,29.78,SW,223,7.0,21.0,55,0.00,,,0.00,0,Wunderground v.1.15,2013-04-06 12:40:00,
2013-04-06 06:55:00,32.7,18.3,29.77,South,184,7.0,21.0,55,0.00,,,0.00,0,Wunderground v.1.15,2013-04-06 12:55:00,
2013-04-06 07:15:00,33.1,17.8,29.77,NW,318,8.0,31.0,53,0.00,,,0.00,11,Wunderground v.1.15,2013-04-06 13:15:00,
2013-04-06 07:20:00,33.2,18.3,29.77,SSW,195,8.0,8.0,54,0.00,,,0.00,9,Wunderground v.1.15,2013-04-06 13:20:00,
2013-04-06 07:25:00,33.4,18.9,29.81,SSE,164,7.0,14.0,55,0.00,,,0.00,9,Wunderground v.1.15,2013-04-06 13:25:00,
2013-04-06 07:35:00,33.5,18.6,29.81,SSE,147,6.0,31.0,54,0.00,,,0.00,16,Wunderground v.1.15,2013-04-06 13:35:00,
2013-04-06 07:45:00,33.8,18.5,29.80,SSW,199,7.0,13.0,53,0.00,,,0.00,18,Wunderground v.1.15,2013-04-06 13:45:00,
2013-04-06 07:50:00,34.1,18.7,29.80,SSW,200,7.0,7.0,53,0.00,,,0.00,16,Wunderground v.1.15,2013-04-06 13:50:00,
2013-04-06 07:55:00,34.1,18.7,29.80,SE,131,8.0,8.0,53,0.00,,,0.00,12,Wunderground v.1.15,2013-04-06 13:55:00,
2013-04-06 08:05:00,34.4,19.0,29.80,SE,141,8.0,10.0,53,0.00,,,0.00,16,Wunderground v.1.15,2013-04-06 14:05:00,
2013-04-06 08:15:00,34.4,18.6,29.81,SSE,158,9.0,25.0,52,0.00,,,0.00,16,Wunderground v.1.15,2013-04-06 14:15:00,
2013-04-06 08:20:00,34.4,18.6,29.81,SSW,196,10.0,25.0,52,0.00,,,0.00,21,Wunderground v.1.15,2013-04-06 14:20:00,
2013-04-06 08:30:00,34.7,19.3,29.88,SSW,203,8.0,8.0,53,0.00,,,0.00,23,Wunderground v.1.15,2013-04-06 14:30:00,
2013-04-06 08:40:00,35.0,18.7,29.88,South,188,8.0,23.0,51,0.00,,,0.00,26,Wunderground v.1.15,2013-04-06 14:40:00,
2013-04-06 08:50:00,35.8,18.0,29.88,WSW,251,8.0,8.0,48,0.00,,,0.00,37,Wunderground v.1.15,2013-04-06 14:50:00,
2013-04-06 09:00:00,36.5,18.2,29.86,WNW,284,10.0,10.0,47,0.00,,,0.00,33,Wunderground v.1.15,2013-04-06 15:00:00,
2013-04-06 09:05:00,36.8,19.4,29.86,WSW,256,7.0,23.0,49,0.00,,,0.00,35,Wunderground v.1.15,2013-04-06 15:05:00,
2013-04-06 09:15:00,37.5,18.1,29.87,SW,219,10.0,11.0,45,0.00,,,0.00,39,Wunderground v.1.15,2013-04-06 15:15:00,
2013-04-06 09:25:00,38.3,18.8,29.85,SSW,209,10.0,22.0,45,0.00,,,0.00,42,Wunderground v.1.15,2013-04-06 15:25:00,
2013-04-06 09:30:00,38.6,18.5,29.85,SSW,203,9.0,9.0,44,0.00,,,0.00,49,Wunderground v.1.15,2013-04-06 15:30:00,
2013-04-06 09:40:00,39.3,19.7,29.84,West,264,9.0,24.0,45,0.00,,,0.00,123,Wunderground v.1.15,2013-04-06 15:40:00,
2013-04-06 09:45:00,39.6,18.9,29.84,WSW,251,9.0,24.0,43,0.00,,,0.00,125,Wunderground v.1.15,2013-04-06 15:45:00,
2013-04-06 09:55:00,40.2,18.9,29.84,SW,220,10.0,24.0,42,0.00,,,0.00,440,Wunderground v.1.15,2013-04-06 15:55:00,
2013-04-06 10:05:00,40.3,17.9,29.84,WNW,296,9.0,24.0,40,0.00,,,0.00,99,Wunderground v.1.15,2013-04-06 16:05:00,
2013-04-06 10:15:00,39.2,18.5,29.85,SSW,195,8.0,24.0,43,0.00,,,0.00,109,Wunderground v.1.15,2013-04-06 16:15:00,
2013-04-06 10:25:00,40.6,19.3,29.85,WNW,285,8.0,24.0,42,0.00,,,0.01,519,Wunderground v.1.15,2013-04-06 16:25:00,
2013-04-06 10:30:00,40.8,19.5,29.85,NW,304,8.0,24.0,42,0.00,,,0.01,114,Wunderground v.1.15,2013-04-06 16:30:00,
2013-04-06 10:40:00,40.3,19.5,29.86,NW,313,10.0,10.0,43,0.00,,,0.01,197,Wunderground v.1.15,2013-04-06 16:40:00,
2013-04-06 10:50:00,41.2,19.8,29.86,NW,305,8.0,26.0,42,0.00,,,0.01,230,Wunderground v.1.15,2013-04-06 16:50:00,
2013-04-06 11:00:00,40.2,18.3,29.84,NNW,329,8.0,8.0,41,0.00,,,0.01,174,Wunderground v.1.15,2013-04-06 17:00:00,
2013-04-06 11:05:00,39.6,17.8,29.84,WNW,288,7.0,26.0,41,0.00,,,0.02,208,Wunderground v.1.15,2013-04-06 17:05:00,
2013-04-06 11:15:00,39.9,16.9,29.86,WNW,285,8.0,13.0,39,0.00,,,0.02,227,Wunderground v.1.15,2013-04-06 17:15:00,
2013-04-06 11:20:00,40.6,19.3,29.86,West,275,7.0,20.0,42,0.00,,,0.02,333,Wunderground v.1.15,2013-04-06 17:20:00,
2013-04-06 11:30:00,40.8,18.3,29.83,West,281,7.0,20.0,40,0.00,,,0.02,246,Wunderground v.1.15,2013-04-06 17:30:00,
2013-04-06 11:35:00,41.1,18.6,29.83,SSW,212,8.0,20.0,40,0.00,,,0.02,236,Wunderground v.1.15,2013-04-06 17:35:00,
2013-04-06 11:45:00,42.1,18.3,29.84,North,356,9.0,21.0,38,0.00,,,0.02,334,Wunderground v.1.15,2013-04-06 17:45:00,
2013-04-06 11:55:00,43.6,20.2,29.82,WSW,256,8.0,21.0,39,0.00,,,0.02,684,Wunderground v.1.15,2013-04-06 17:55:00,
2013-04-06 12:05:00,44.5,19.2,29.82,WNW,295,7.0,10.0,36,0.00,,,0.02,232,Wunderground v.1.15,2013-04-06 18:05:00,
2013-04-06 12:20:00,43.1,19.2,29.80,SW,217,8.0,8.0,38,0.00,,,0.02,169,Wunderground v.1.15,2013-04-06 18:20:00,
2013-04-06 12:25:00,42.3,18.5,29.82,SSW,213,7.0,24.0,38,0.00,,,0.02,223,Wunderground v.1.15,2013-04-06 18:25:00,
2013-04-06 12:35:00,44.8,18.8,29.82,WNW,296,7.0,24.0,35,0.00,,,0.02,829,Wunderground v.1.15,2013-04-06 18:35:00,
2013-04-06 12:45:00,44.3,19.0,29.80,SSW,213,8.0,8.0,36,0.00,,,0.02,491,Wunderground v.1.15,2013-04-06 18:45:00,
2013-04-06 12:50:00,44.3,16.3,29.80,SW,230,8.0,18.0,32,0.00,,,0.02,171,Wunderground v.1.15,2013-04-06 18:50:00,
2013-04-06 13:00:00,44.8,19.4,29.80,South,179,9.0,18.0,36,0.00,,,0.02,547,Wunderground v.1.15,2013-04-06 19:00:00,
2013-04-06 13:05:00,46.1,18.6,29.80,West,278,8.0,18.0,33,0.00,,,0.02,399,Wunderground v.1.15,2013-04-06 19:05:00,
2013-04-06 13:15:00,46.4,18.8,29.78,West,274,7.0,21.0,33,0.00,,,0.02,132,Wunderground v.1.15,2013-04-06 19:15:00,
2013-04-06 13:25:00,46.1,17.1,29.79,SW,236,8.0,21.0,31,0.00,,,0.02,209,Wunderground v.1.15,2013-04-06 19:25:00,
2013-04-06 13:35:00,45.7,17.5,29.79,WSW,240,6.0,21.0,32,0.00,,,0.02,74,Wunderground v.1.15,2013-04-06 19:35:00,
2013-04-06 13:45:00,45.8,16.8,29.79,SW,217,8.0,8.0,31,0.00,,,0.02,83,Wunderground v.1.15,2013-04-06 19:45:00,
2013-04-06 13:55:00,46.4,17.4,29.78,SSW,199,7.0,21.0,31,0.00,,,0.02,128,Wunderground v.1.15,2013-04-06 19:55:00,
2013-04-06 14:00:00,47.0,16.3,29.78,SSW,208,5.0,5.0,29,0.00,,,0.02,93,Wunderground v.1.15,2013-04-06 20:00:00,
2013-04-06 14:05:00,47.6,17.6,29.78,WSW,253,5.0,6.0,30,0.00,,,0.02,144,Wunderground v.1.15,2013-04-06 20:05:00,
2013-04-06 14:20:00,47.6,16.9,29.76,South,172,7.0,7.0,29,0.00,,,0.02,104,Wunderground v.1.15,2013-04-06 20:20:00,
2013-04-06 14:30:00,48.3,21.2,29.77,WSW,241,5.0,21.0,34,0.00,,,0.02,81,Wunderground v.1.15,2013-04-06 20:30:00,
2013-04-06 14:35:00,47.4,16.7,29.77,SE,133,5.0,21.0,29,0.00,,,0.02,120,Wunderground v.1.15,2013-04-06 20:35:00,
2013-04-06 14:45:00,48.5,16.8,29.77,SW,220,5.0,17.0,28,0.00,,,0.02,160,Wunderground v.1.15,2013-04-06 20:45:00,
2013-04-06 14:55:00,49.6,18.6,29.75,North,7,4.0,6.0,29,0.00,,,0.02,512,Wunderground v.1.15,2013-04-06 20:55:00,
2013-04-06 15:05:00,49.8,18.0,29.75,SW,232,5.0,5.0,28,0.00,,,0.02,867,Wunderground v.1.15,2013-04-06 21:05:00,
2013-04-06 15:15:00,50.2,18.3,29.72,WSW,239,5.0,9.0,28,0.00,,,0.02,114,Wunderground v.1.15,2013-04-06 21:15:00,
2013-04-06 15:20:00,50.1,17.4,29.72,NNW,335,6.0,6.0,27,0.00,,,0.02,141,Wunderground v.1.15,2013-04-06 21:20:00,
2013-04-06 15:30:00,49.8,18.0,29.71,SW,222,8.0,16.0,28,0.00,,,0.02,181,Wunderground v.1.15,2013-04-06 21:30:00,
2013-04-06 15:40:00,49.5,17.7,29.74,West,264,9.0,9.0,28,0.00,,,0.02,838,Wunderground v.1.15,2013-04-06 21:40:00,
2013-04-06 15:45:00,50.4,18.5,29.74,NNW,340,8.0,11.0,28,0.00,,,0.02,830,Wunderground v.1.15,2013-04-06 21:45:00,
2013-04-06 15:55:00,50.1,18.2,29.71,SE,137,3.0,20.0,28,0.00,,,0.02,838,Wunderground v.1.15,2013-04-06 21:55:00,
2013-04-06 16:00:00,50.1,18.2,29.71,SSW,196,3.0,20.0,28,0.00,,,0.02,802,Wunderground v.1.15,2013-04-06 22:00:00,
2013-04-06 16:05:00,51.0,19.0,29.71,SW,223,5.0,20.0,28,0.00,,,0.02,809,Wunderground v.1.15,2013-04-06 22:05:00,
2013-04-06 16:20:00,51.6,18.7,29.72,West,271,7.0,7.0,27,0.00,,,0.02,765,Wunderground v.1.15,2013-04-06 22:20:00,
2013-04-06 16:30:00,50.8,19.6,29.71,NNW,328,6.0,22.0,29,0.00,,,0.02,739,Wunderground v.1.15,2013-04-06 22:30:00,
2013-04-06 16:35:00,50.8,18.0,29.71,WNW,302,6.0,22.0,27,0.00,,,0.02,655,Wunderground v.1.15,2013-04-06 22:35:00,
2013-04-06 16:45:00,49.9,18.0,29.71,South,186,6.0,26.0,28,0.00,,,0.02,158,Wunderground v.1.15,2013-04-06 22:45:00,
2013-04-06 16:55:00,48.3,17.5,29.74,WSW,254,5.0,26.0,29,0.00,,,0.02,137,Wunderground v.1.15,2013-04-06 22:55:00,
2013-04-06 17:00:00,48.2,19.7,29.74,North,359,5.0,26.0,32,0.00,,,0.02,118,Wunderground v.1.15,2013-04-06 23:00:00,
2013-04-06 17:05:00,48.3,19.8,29.74,SSW,213,6.0,26.0,32,0.00,,,0.02,135,Wunderground v.1.15,2013-04-06 23:05:00,
2013-04-06 17:15:00,48.2,19.7,29.75,West,274,3.0,16.0,32,0.00,,,0.02,84,Wunderground v.1.15,2013-04-06 23:15:00,
2013-04-06 17:20:00,47.6,19.9,29.75,West,275,3.0,16.0,33,0.00,,,0.02,67,Wunderground v.1.15,2013-04-06 23:20:00,
2013-04-06 17:25:00,47.1,18.7,29.76,WSW,246,3.0,16.0,32,0.00,,,0.02,100,Wunderground v.1.15,2013-04-06 23:25:00,
2013-04-06 17:35:00,46.4,18.8,29.76,SW,224,3.0,4.0,33,0.00,,,0.02,77,Wunderground v.1.15,2013-04-06 23:35:00,
2013-04-06 17:45:00,46.2,19.3,29.78,NW,322,5.0,17.0,34,0.00,,,0.02,72,Wunderground v.1.15,2013-04-06 23:45:00,
2013-04-06 17:55:00,46.0,18.5,29.78,NW,311,5.0,17.0,33,0.00,,,0.02,55,Wunderground v.1.15,2013-04-06 23:55:00,
2013-04-06 18:05:00,45.2,19.1,29.78,SSE,148,5.0,17.0,35,0.00,,,0.02,44,Wunderground v.1.15,2013-04-07 00:05:00,
2013-04-06 18:15:00,44.9,20.2,29.79,NW,304,3.0,14.0,37,0.00,,,0.02,35,Wunderground v.1.15,2013-04-07 00:15:00,
2013-04-06 18:25:00,44.3,20.3,29.78,SSE,165,4.0,14.0,38,0.00,,,0.02,21,Wunderground v.1.15,2013-04-07 00:25:00,
2013-04-06 18:35:00,44.1,20.1,29.78,WSW,248,5.0,14.0,38,0.00,,,0.02,19,Wunderground v.1.15,2013-04-07 00:35:00,
2013-04-06 18:45:00,43.6,19.6,29.80,SSW,210,2.0,11.0,38,0.00,,,0.02,21,Wunderground v.1.15,2013-04-07 00:45:00,
2013-04-06 18:55:00,43.3,20.6,29.80,West,274,2.0,11.0,40,0.00,,,0.02,12,Wunderground v.1.15,2013-04-07 00:55:00,
2013-04-06 19:05:00,43.1,21.0,29.80,West,272,1.0,11.0,41,0.00,,,0.02,7,Wunderground v.1.15,2013-04-07 01:05:00,
2013-04-06 19:15:00,42.9,19.6,29.80,West,275,3.0,9.0,39,0.00,,,0.02,5,Wunderground v.1.15,2013-04-07 01:15:00,
2013-04-06 19:20:00,42.8,20.1,29.80,SW,232,3.0,3.0,40,0.00,,,0.02,0,Wunderground v.1.15,2013-04-07 01:20:00,
2013-04-06 19:30:00,41.9,22.1,29.80,South,185,4.0,4.0,45,0.00,,,0.02,0,Wunderground v.1.15,2013-04-07 01:30:00,
2013-04-06 19:40:00,41.5,21.7,29.80,SW,236,5.0,14.0,45,0.00,,,0.02,0,Wunderground v.1.15,2013-04-07 01:40:00,
2013-04-06 19:45:00,41.2,22.0,29.80,SW,234,5.0,14.0,46,0.00,,,0.02,0,Wunderground v.1.15,2013-04-07 01:45:00,
2013-04-06 19:55:00,41.1,21.9,29.82,SW,217,2.0,14.0,46,0.00,,,0.02,0,Wunderground v.1.15,2013-04-07 01:55:00,
2013-04-06 20:05:00,40.9,22.2,29.82,WSW,257,3.0,14.0,47,0.00,,,0.02,0,Wunderground v.1.15,2013-04-07 02:05:00,
2013-04-06 20:15:00,40.8,23.6,29.82,WNW,295,5.0,11.0,50,0.00,,,0.02,0,Wunderground v.1.15,2013-04-07 02:15:00,
2013-04-06 20:20:00,40.6,24.3,29.82,NW,308,6.0,6.0,52,0.00,,,0.02,0,Wunderground v.1.15,2013-04-07 02:20:00,
2013-04-06 20:30:00,39.6,24.7,29.79,WNW,296,3.0,3.0,55,0.00,,,0.02,0,Wunderground v.1.15,2013-04-07 02:30:00,
2013-04-06 20:40:00,38.9,24.5,29.81,WNW,302,3.0,3.0,56,0.00,,,0.02,0,Wunderground v.1.15,2013-04-07 02:40:00,
2013-04-06 20:50:00,38.5,25.0,29.81,West,263,3.0,14.0,58,0.00,,,0.02,0,Wunderground v.1.15,2013-04-07 02:50:00,